FTTJ

N'Djamena International Airport

N'Djamena, Chad
METAR FTTJ 250500Z 16011KT 160V220 9999 FEW033 28/18 Q1007 NOSIG
Observed Flight Rules
May-25 @ 05:00 UTC (28 minutes ago) Visual Flight Rules
Wind Visibility Clouds
160° at 11 knots 10,000+ meters
  • Few at 3,300' AGL
Temperatures Readings
Current 28°C / 82°F
Dewpoint 18°C / 64°F
Humidity 55%
Altimeter 29.73" Hg
Pressure 1007 hPa
Elevation 295
METAR FTTJ 250500Z 16011KT 160V220 9999 FEW033 28/18 Q1007 NOSIG
Observed Flight Rules
May-25 @ 05:00 UTC
(28 minutes ago)
VFR
Wind Visibility
160° at 11 knots 10,000+ meters
Clouds
  • Few at 3,300' AGL
Temperature Dewpoint
28°C / 82°F 18°C / 64°F
Humidity Altimeter Pressure
55% 29.73" Hg 1007 hPa